Airfield :
LOGIN :

Register | Disclaimer

   EN    FR    IT 

 










Legend :    VFR   Marginal VFR   IFR   Intensive IFR   Very Intensive IFR
Visi :
Ceiling :
>= 8 km
>= 3000ft
5 to 8 km
1000 to 3000 ft
1500m to 5 km
500 to 1000 ft
800 to 1500m
200 to 500 ft
< 800m
< 200 ft
Symbols :   Thunderstorms  Fog  Heavy snow  Heavy precipitations  Wind > 20 kt
SIGMETs :     Misc.  Thunderstorms  Icing  Turbulence  Mountain Waves  Volcanic Ashes






- Airport Elevation : 423 ft
- IATA code : PIS


LFBI - Poitiers

CURRENT METAR :
  • 150500Z AUTO 34002KT CAVOK 14/14 Q1015 TEMPO 4000 BR

EXPIRED METARs :
  • 150430Z AUTO 32003KT CAVOK 14/14 Q1015 TEMPO 4000 BR
  • 150400Z AUTO 32002KT CAVOK 15/14 Q1015 TEMPO 4000 BR
  • 150330Z AUTO 36003KT CAVOK 15/15 Q1015 TEMPO 4000 BR
  • 150300Z AUTO 02003KT CAVOK 16/15 Q1015 TEMPO 4000 BR
  • 150230Z AUTO 32003KT CAVOK 16/15 Q1016 TEMPO 4000 BR

TAF TAF LFBI
Valid from the 15 at 00:00 until the 16 at 00:00 UTC


142300Z 1500/1524 VRB03KT CAVOK
PROB30 1503/1507 4000 BR
BECMG 1510/1512 07010KT
TEMPO 1514/1518 -SHRA BKN080TCU
TEMPO 1523/1524 VRB15G25KT SHRA BKN060TCU



MET'MAP, your aeronautical weather chart ! - Copyright ORBIFLY December 2007 - Disclaimer

ORBIFLY MET'MAP TEAM :

Programming & Development : Alexandra Zaïnal
Concept & original design : Baudouin d'Aumeries
Assistance for programming : Marc-Olivier Méhu
Technical & hardware support : Manuel Goepfert

Contact : metmap@orbifly.com




SOURCES & CREDITS :

   NOAA